Time;durP1;ratioP1;P1;durP2;ratioP2;P2;SDS_P1;SDS_P2;PMS_P1;PMS_P2;Temp;Humidity;BMP_temperature;BMP_pressure;BME280_temperature;BME280_humidity;BME280_pressure;Samples;Min_cycle;Max_cycle;Signal;HPM_P1;HPM_P2
2023/12/13 00:01:49;;;;;;;61.50;37.45;;;;;;;4.53;100.00;98354.91;4897211;29;20076;-85
2023/12/13 00:04:14;;;;;;;67.68;36.83;;;;;;;4.65;100.00;98380.19;4913016;29;20056;-85
2023/12/13 00:06:39;;;;;;;64.88;38.22;;;;;;;4.71;100.00;98387.66;4913065;29;20272;-85
2023/12/13 00:09:08;;;;;;;66.13;37.38;;;;;;;4.63;100.00;98363.09;4896719;29;20203;-85
2023/12/13 00:11:34;;;;;;;53.17;33.60;;;;;;;4.84;100.00;98387.13;4897444;29;20032;-85
2023/12/13 00:13:59;;;;;;;54.28;33.72;;;;;;;4.69;100.00;98358.53;4900695;29;20401;-85
2023/12/13 00:16:24;;;;;;;50.97;30.10;;;;;;;4.81;100.00;98388.09;4917062;29;20072;-85
2023/12/13 00:18:50;;;;;;;53.25;31.73;;;;;;;4.80;100.00;98391.56;4926585;29;20039;-85
2023/12/13 00:21:17;;;;;;;50.50;30.50;;;;;;;4.84;100.00;98397.44;4937612;29;20426;-85
2023/12/13 00:23:42;;;;;;;45.53;27.48;;;;;;;4.86;100.00;98390.50;4938319;29;20185;-85
2023/12/13 00:26:17;;;;;;;52.42;31.23;;;;;;;4.83;100.00;98382.88;4938556;29;20087;-85
2023/12/13 00:28:43;;;;;;;56.28;31.60;;;;;;;4.81;100.00;98375.22;4938179;29;20143;-85
2023/12/13 00:31:10;;;;;;;55.08;32.75;;;;;;;4.65;100.00;98356.16;4937367;29;20086;-85
2023/12/13 00:33:35;;;;;;;46.03;30.08;;;;;;;4.81;100.00;98384.69;4937939;29;20536;-85
2023/12/13 00:36:01;;;;;;;54.63;33.85;;;;;;;4.70;100.00;98367.09;4937984;29;20051;-84
2023/12/13 00:38:26;;;;;;;56.88;34.13;;;;;;;4.79;100.00;98397.63;4938234;29;20032;-85
2023/12/13 00:40:52;;;;;;;57.53;33.42;;;;;;;4.75;100.00;98390.94;4938275;29;20087;-85
2023/12/13 00:43:17;;;;;;;55.28;33.17;;;;;;;4.71;100.00;98371.34;4937476;29;20042;-85
2023/12/13 00:45:43;;;;;;;64.30;35.83;;;;;;;4.61;100.00;98341.72;4937963;29;20112;-85
2023/12/13 00:48:08;;;;;;;60.10;36.63;;;;;;;4.78;100.00;98366.75;4936509;29;20036;-85
2023/12/13 00:50:34;;;;;;;60.55;35.80;;;;;;;4.80;100.00;98378.66;4936846;29;20079;-85
2023/12/13 00:52:59;;;;;;;57.10;34.58;;;;;;;4.57;100.00;98340.16;4937621;29;20092;-85
2023/12/13 00:55:25;;;;;;;55.70;34.17;;;;;;;4.72;100.00;98367.88;4938049;29;20067;-85
2023/12/13 00:57:51;;;;;;;57.00;35.67;;;;;;;4.64;100.00;98357.88;4937797;29;20027;-85
2023/12/13 01:00:17;;;;;;;56.08;34.85;;;;;;;4.42;100.00;98324.44;4937512;29;20066;-85
2023/12/13 01:02:42;;;;;;;56.95;33.72;;;;;;;4.65;100.00;98364.72;4936103;29;20028;-85
2023/12/13 01:05:07;;;;;;;60.72;36.80;;;;;;;4.70;100.00;98372.25;4937133;29;20020;-85
2023/12/13 01:07:33;;;;;;;58.85;34.90;;;;;;;4.72;100.00;98373.03;4937759;29;20087;-85
2023/12/13 01:09:58;;;;;;;59.03;35.85;;;;;;;4.71;100.00;98367.00;4937734;29;20452;-85
2023/12/13 01:12:24;;;;;;;59.80;34.90;;;;;;;4.72;100.00;98355.81;4937329;29;20493;-85
2023/12/13 01:14:49;;;;;;;55.30;36.10;;;;;;;4.77;100.00;98360.78;4937528;29;20087;-84
2023/12/13 01:17:14;;;;;;;58.78;35.38;;;;;;;4.80;100.00;98358.03;4935487;29;20056;-85
2023/12/13 01:19:40;;;;;;;58.53;36.13;;;;;;;4.61;100.00;98332.22;4937124;29;20111;-84
2023/12/13 01:22:05;;;;;;;63.78;37.28;;;;;;;4.68;100.00;98351.69;4937166;29;20123;-84
2023/12/13 01:24:30;;;;;;;53.42;35.33;;;;;;;4.74;100.00;98358.31;4936932;29;20324;-84
2023/12/13 01:26:57;;;;;;;62.42;34.88;;;;;;;4.72;100.00;98347.25;4937284;29;20480;-85
2023/12/13 01:29:22;;;;;;;54.33;33.92;;;;;;;4.60;100.00;98330.56;4936992;29;20023;-85
2023/12/13 01:31:48;;;;;;;58.22;34.55;;;;;;;4.67;100.00;98346.59;4937315;29;20119;-85
2023/12/13 01:34:14;;;;;;;59.63;35.90;;;;;;;4.46;100.00;98307.09;4937111;29;20024;-85
2023/12/13 01:36:43;;;;;;;61.00;34.40;;;;;;;4.55;100.00;98314.47;4937284;29;20105;-85
2023/12/13 01:39:08;;;;;;;50.17;32.80;;;;;;;4.57;100.00;98316.97;4936523;29;20110;-85
2023/12/13 01:41:34;;;;;;;59.88;37.83;;;;;;;4.63;100.00;98322.66;4936936;29;20535;-85
2023/12/13 01:43:59;;;;;;;50.15;32.80;;;;;;;4.72;100.00;98327.44;4935454;29;20028;-85
2023/12/13 01:46:25;;;;;;;61.90;37.55;;;;;;;4.82;100.00;98334.78;4936529;29;20111;-84
2023/12/13 01:48:51;;;;;;;50.17;32.05;;;;;;;4.78;100.00;98315.19;4936808;29;20098;-85
2023/12/13 01:51:16;;;;;;;47.33;29.50;;;;;;;4.79;100.00;98312.50;4936255;29;20031;-85
2023/12/13 01:53:42;;;;;;;55.28;32.05;;;;;;;4.70;100.00;98297.47;4937021;29;20063;-85
2023/12/13 01:56:10;;;;;;;52.58;32.22;;;;;;;4.75;100.00;98316.97;4936237;29;20477;-85
2023/12/13 01:58:38;;;;;;;47.85;28.63;;;;;;;4.75;100.00;98318.72;4935011;29;20475;-85
2023/12/13 02:01:04;;;;;;;49.55;30.58;;;;;;;4.76;100.00;98315.22;4934742;29;20031;-85
2023/12/13 02:03:30;;;;;;;48.75;29.05;;;;;;;4.56;100.00;98285.19;4936693;29;20113;-84
2023/12/13 02:05:56;;;;;;;45.95;29.13;;;;;;;4.56;100.00;98272.28;4936482;29;20035;-84
2023/12/13 02:08:22;;;;;;;55.05;30.27;;;;;;;4.58;100.00;98283.34;4936349;29;20052;-84
2023/12/13 02:10:49;;;;;;;67.38;38.65;;;;;;;4.64;100.00;98283.09;4935235;29;20086;-84
2023/12/13 02:13:15;;;;;;;57.63;32.35;;;;;;;4.64;100.00;98280.53;4935864;29;20054;-85
2023/12/13 02:15:43;;;;;;;54.58;31.98;;;;;;;4.41;100.00;98232.53;4936058;29;20027;-85
2023/12/13 02:18:09;;;;;;;48.90;28.15;;;;;;;4.83;100.00;98298.56;4934553;29;20044;-84
2023/12/13 02:20:35;;;;;;;53.92;28.95;;;;;;;4.81;100.00;98290.09;4936320;29;20030;-84
2023/12/13 02:23:00;;;;;;;44.90;26.35;;;;;;;4.78;100.00;98279.06;4950657;29;20032;-85
2023/12/13 02:25:35;;;;;;;44.45;26.52;;;;;;;4.83;100.00;98290.00;4914064;29;20040;-84
2023/12/13 02:28:01;;;;;;;49.45;27.65;;;;;;;4.80;100.00;98282.41;4914880;29;20517;-84
2023/12/13 02:30:27;;;;;;;51.25;29.60;;;;;;;4.67;100.00;98257.16;4914400;29;20044;-84
2023/12/13 02:32:52;;;;;;;44.25;25.25;;;;;;;4.80;100.00;98272.91;4898924;29;20152;-84
2023/12/13 02:35:18;;;;;;;42.42;27.42;;;;;;;4.73;100.00;98264.63;4913649;29;20069;-84
2023/12/13 02:37:49;;;;;;;41.35;24.95;;;;;;;4.97;100.00;98292.78;4915116;29;20032;-84
2023/12/13 02:40:18;;;;;;;42.13;24.50;;;;;;;4.84;100.00;98273.63;4916140;29;20064;-84
2023/12/13 02:42:44;;;;;;;49.58;28.20;;;;;;;4.79;100.00;98271.25;4939979;29;20023;-84
2023/12/13 02:45:12;;;;;;;46.10;24.55;;;;;;;4.86;100.00;98279.56;4923892;29;20028;-84
2023/12/13 02:47:41;;;;;;;51.60;28.65;;;;;;;4.81;100.00;98274.59;4923848;29;20076;-84
2023/12/13 02:50:09;;;;;;;50.92;27.05;;;;;;;4.89;100.00;98282.00;4919201;29;20040;-84
2023/12/13 02:52:35;;;;;;;43.15;26.58;;;;;;;4.66;100.00;98247.75;4935674;29;20055;-84
2023/12/13 02:55:00;;;;;;;46.58;28.38;;;;;;;4.63;100.00;98244.47;4939658;29;20036;-84
2023/12/13 02:57:25;;;;;;;45.38;25.60;;;;;;;4.88;100.00;98273.41;4957999;28;20548;-84
2023/12/13 02:59:50;;;;;;;43.38;24.90;;;;;;;4.79;100.00;98263.50;4959583;28;20043;-84
2023/12/13 03:02:16;;;;;;;42.65;25.40;;;;;;;4.76;100.00;98248.16;4959473;28;20028;-84
2023/12/13 03:04:41;;;;;;;45.03;25.38;;;;;;;4.84;100.00;98258.13;4959600;28;20016;-84
2023/12/13 03:07:06;;;;;;;46.90;26.27;;;;;;;4.78;100.00;98267.00;4958614;29;20031;-84
2023/12/13 03:09:32;;;;;;;48.28;27.20;;;;;;;4.81;100.00;98255.72;4949454;29;20055;-84
2023/12/13 03:11:57;;;;;;;46.70;26.45;;;;;;;4.48;100.00;98204.75;4935012;29;20059;-84
2023/12/13 03:14:22;;;;;;;50.10;28.75;;;;;;;4.69;100.00;98242.47;4934666;29;20054;-84
2023/12/13 03:16:48;;;;;;;56.97;32.10;;;;;;;4.70;100.00;98243.28;4935069;29;20404;-84
2023/12/13 03:19:13;;;;;;;65.15;31.55;;;;;;;4.73;100.00;98250.91;4934447;29;20052;-84
2023/12/13 03:21:38;;;;;;;50.75;28.67;;;;;;;4.62;100.00;98237.66;4934723;29;20389;-84
2023/12/13 03:24:04;;;;;;;51.30;28.98;;;;;;;4.20;100.00;98180.19;4933591;29;20023;-84
2023/12/13 03:26:29;;;;;;;50.42;30.60;;;;;;;4.57;100.00;98231.88;4934183;29;20107;-84
2023/12/13 03:28:55;;;;;;;52.30;31.13;;;;;;;4.28;100.00;98171.28;4935155;29;20060;-84
2023/12/13 03:31:20;;;;;;;51.42;28.70;;;;;;;4.45;100.00;98181.69;4934852;29;20111;-84
2023/12/13 03:33:45;;;;;;;48.90;30.38;;;;;;;4.41;100.00;98169.84;4933318;29;20122;-84
2023/12/13 03:36:15;;;;;;;55.13;29.55;;;;;;;4.55;100.00;98195.84;4949038;29;20059;-84
2023/12/13 03:38:40;;;;;;;49.60;27.77;;;;;;;4.63;100.00;98210.94;4934419;29;20470;-84
2023/12/13 03:41:06;;;;;;;55.67;27.52;;;;;;;4.59;100.00;98201.66;4934388;29;20091;-84
2023/12/13 03:43:31;;;;;;;56.25;29.40;;;;;;;4.56;100.00;98204.41;4934741;29;20027;-84
2023/12/13 03:45:57;;;;;;;52.38;30.83;;;;;;;4.47;100.00;98169.56;4949067;29;20024;-84
2023/12/13 03:48:22;;;;;;;52.35;29.13;;;;;;;4.73;100.00;98209.63;4933003;29;20389;-84
2023/12/13 03:50:47;;;;;;;45.45;26.88;;;;;;;4.45;100.00;98161.88;4934411;29;20031;-84
2023/12/13 03:53:13;;;;;;;50.65;26.88;;;;;;;4.46;100.00;98173.88;4933851;29;20024;-84
2023/12/13 03:55:38;;;;;;;48.50;27.25;;;;;;;4.48;100.00;98189.28;4934315;29;20027;-84
2023/12/13 03:58:03;;;;;;;51.83;29.10;;;;;;;3.90;100.00;98092.22;4934551;29;20020;-84
2023/12/13 04:00:29;;;;;;;52.05;26.85;;;;;;;4.54;100.00;98193.31;4934368;29;20028;-84
2023/12/13 04:02:54;;;;;;;55.05;26.90;;;;;;;4.42;100.00;98162.03;4934514;29;20032;-84
2023/12/13 04:05:19;;;;;;;47.45;27.63;;;;;;;4.49;100.00;98178.06;4933999;29;20417;-84
2023/12/13 04:07:45;;;;;;;56.92;28.00;;;;;;;4.47;100.00;98191.03;4948954;28;20508;-85
2023/12/13 04:10:10;;;;;;;46.63;27.83;;;;;;;4.17;100.00;98146.84;4934210;29;20031;-84
2023/12/13 04:12:35;;;;;;;48.17;25.65;;;;;;;4.40;100.00;98175.91;4948666;29;20068;-84
2023/12/13 04:15:01;;;;;;;48.70;27.48;;;;;;;4.16;100.00;98137.44;4934374;29;20028;-84
2023/12/13 04:17:26;;;;;;;51.17;27.58;;;;;;;4.28;100.00;98150.69;4934230;29;20032;-85
2023/12/13 04:19:51;;;;;;;51.47;26.95;;;;;;;4.41;100.00;98180.16;4934234;29;20036;-84
2023/12/13 04:22:17;;;;;;;51.75;26.80;;;;;;;4.16;100.00;98145.16;4934142;29;20035;-85
2023/12/13 04:24:42;;;;;;;50.85;27.50;;;;;;;4.40;100.00;98179.31;4934218;29;20024;-85
2023/12/13 04:27:09;;;;;;;51.75;26.50;;;;;;;4.36;100.00;98161.47;4875351;29;20044;-85
2023/12/13 04:29:34;;;;;;;43.13;24.77;;;;;;;4.45;100.00;98179.94;4875077;29;20057;-84
2023/12/13 04:31:59;;;;;;;50.55;26.83;;;;;;;4.44;100.00;98159.41;4875603;29;20045;-84
2023/12/13 04:34:24;;;;;;;49.70;25.15;;;;;;;4.49;100.00;98166.00;4875106;29;20033;-85
2023/12/13 04:36:50;;;;;;;45.20;25.42;;;;;;;4.50;100.00;98167.66;4859585;29;20041;-85
2023/12/13 04:39:15;;;;;;;47.97;24.52;;;;;;;4.55;100.00;98193.28;4874715;29;20060;-85
2023/12/13 04:41:40;;;;;;;43.17;24.13;;;;;;;4.38;100.00;98154.50;4875201;29;20078;-85
2023/12/13 04:44:08;;;;;;;42.53;24.13;;;;;;;4.61;100.00;98168.94;4875183;29;20037;-85
2023/12/13 04:46:33;;;;;;;49.10;26.15;;;;;;;4.49;100.00;98167.75;4875040;29;20067;-85
2023/12/13 04:48:59;;;;;;;44.40;24.45;;;;;;;4.49;100.00;98170.31;4875279;29;20487;-85
2023/12/13 04:51:24;;;;;;;45.95;24.33;;;;;;;4.46;100.00;98158.41;4874638;29;20033;-85
2023/12/13 04:53:49;;;;;;;47.72;24.35;;;;;;;4.27;100.00;98133.56;4874915;29;20093;-85
2023/12/13 04:56:15;;;;;;;44.50;25.13;;;;;;;4.26;100.00;98119.84;4874751;29;20040;-84
2023/12/13 04:58:40;;;;;;;40.35;24.33;;;;;;;4.48;100.00;98145.47;4918814;29;20052;-85
2023/12/13 05:01:06;;;;;;;46.75;25.73;;;;;;;4.23;100.00;98101.94;4937561;29;20055;-85
2023/12/13 05:03:31;;;;;;;42.80;24.30;;;;;;;4.40;100.00;98122.59;4936878;29;20019;-85
2023/12/13 05:05:56;;;;;;;43.50;25.00;;;;;;;4.39;100.00;98108.06;4937316;29;20028;-84
2023/12/13 05:08:22;;;;;;;50.90;25.35;;;;;;;4.50;100.00;98133.31;4937118;29;20121;-84
2023/12/13 05:10:47;;;;;;;42.70;23.30;;;;;;;3.92;100.00;98040.66;4937286;29;20477;-85
2023/12/13 05:13:13;;;;;;;45.53;24.50;;;;;;;4.42;100.00;98123.34;4937237;29;20032;-84
2023/12/13 05:15:38;;;;;;;53.50;25.70;;;;;;;4.48;100.00;98115.34;4951602;29;20031;-84
2023/12/13 05:18:04;;;;;;;44.90;24.75;;;;;;;4.46;100.00;98117.16;4935647;29;20536;-85
2023/12/13 05:20:29;;;;;;;45.65;25.08;;;;;;;4.36;100.00;98090.13;4936782;29;20028;-84
2023/12/13 05:22:55;;;;;;;44.97;23.95;;;;;;;4.18;100.00;98062.66;4936797;29;20087;-84
2023/12/13 05:25:20;;;;;;;40.80;24.52;;;;;;;4.29;100.00;98080.19;4935130;29;20115;-84
2023/12/13 05:27:45;;;;;;;41.88;22.13;;;;;;;4.50;100.00;98121.25;4951479;29;20027;-84
2023/12/13 05:30:11;;;;;;;43.13;23.58;;;;;;;4.55;100.00;98108.19;4937029;29;20019;-84
2023/12/13 05:32:37;;;;;;;38.53;22.08;;;;;;;4.61;100.00;98123.34;4936601;29;20036;-84
2023/12/13 05:35:03;;;;;;;41.53;24.17;;;;;;;4.60;100.00;98120.84;4936715;29;20031;-84
2023/12/13 05:37:28;;;;;;;37.58;21.90;;;;;;;4.67;100.00;98122.22;4936190;29;20038;-84
2023/12/13 05:39:54;;;;;;;39.95;24.23;;;;;;;4.60;100.00;98115.69;4936549;29;20039;-84
2023/12/13 05:42:19;;;;;;;48.42;22.98;;;;;;;4.44;100.00;98076.91;4951107;29;20032;-84
2023/12/13 05:44:46;;;;;;;44.78;23.77;;;;;;;4.57;100.00;98096.03;4936493;29;20043;-84
2023/12/13 05:47:11;;;;;;;40.38;22.83;;;;;;;4.58;100.00;98083.97;4936574;29;20038;-85
2023/12/13 05:49:37;;;;;;;43.35;24.92;;;;;;;4.65;100.00;98095.69;4936275;29;20036;-85
2023/12/13 05:52:02;;;;;;;46.53;23.08;;;;;;;4.56;100.00;98078.06;4936400;29;20107;-85
2023/12/13 05:54:28;;;;;;;61.55;27.88;;;;;;;4.57;100.00;98082.31;4950636;28;20130;-84
2023/12/13 05:56:53;;;;;;;73.18;37.42;;;;;;;4.25;100.00;98033.94;4936502;29;20496;-85
2023/12/13 05:59:18;;;;;;;67.43;36.90;;;;;;;4.45;100.00;98052.78;4935780;29;20027;-85
2023/12/13 06:01:44;;;;;;;55.83;27.60;;;;;;;4.46;100.00;98057.03;4936362;29;20102;-84
2023/12/13 06:04:09;;;;;;;48.35;24.77;;;;;;;4.52;100.00;98074.81;4936443;29;20036;-84
2023/12/13 06:06:34;;;;;;;45.95;25.25;;;;;;;4.58;100.00;98089.13;4935896;29;20078;-85
2023/12/13 06:09:00;;;;;;;37.28;23.15;;;;;;;4.52;100.00;98076.53;4935677;29;20059;-84
2023/12/13 06:11:25;;;;;;;45.35;24.77;;;;;;;4.42;100.00;98074.38;4953488;28;20094;-84
2023/12/13 06:13:50;;;;;;;40.38;21.85;;;;;;;4.21;100.00;98032.44;4955283;29;20075;-85
2023/12/13 06:16:18;;;;;;;38.95;21.90;;;;;;;4.27;100.00;98051.91;4955671;29;20027;-84
2023/12/13 06:18:44;;;;;;;40.63;22.02;;;;;;;4.53;100.00;98096.25;4954791;29;20034;-85
2023/12/13 06:21:09;;;;;;;35.75;20.38;;;;;;;4.22;100.00;98044.41;4954816;29;20444;-84
2023/12/13 06:23:35;;;;;;;38.22;21.70;;;;;;;4.38;100.00;98054.84;4937394;29;20122;-84
2023/12/13 06:26:00;;;;;;;40.40;21.15;;;;;;;4.60;100.00;98103.63;4955133;29;20106;-85
2023/12/13 06:28:26;;;;;;;43.75;20.13;;;;;;;4.58;100.00;98105.44;4954946;29;20037;-85
2023/12/13 06:30:51;;;;;;;40.45;20.55;;;;;;;4.60;100.00;98107.97;4953646;29;20023;-85
2023/12/13 06:33:18;;;;;;;40.40;21.50;;;;;;;4.52;100.00;98092.84;4953311;29;20377;-84
2023/12/13 06:35:44;;;;;;;30.67;19.25;;;;;;;4.39;100.00;98084.03;4954519;29;20114;-84
2023/12/13 06:38:09;;;;;;;40.55;21.27;;;;;;;4.56;100.00;98109.84;4954511;29;20117;-84
2023/12/13 06:40:34;;;;;;;36.67;21.17;;;;;;;4.49;100.00;98074.94;4954663;29;20037;-85
2023/12/13 06:43:00;;;;;;;35.53;20.92;;;;;;;4.52;100.00;98073.97;4955251;29;20031;-85
2023/12/13 06:45:25;;;;;;;42.55;24.00;;;;;;;4.55;100.00;98095.28;4954376;29;20031;-84
2023/12/13 06:47:51;;;;;;;39.88;22.02;;;;;;;4.56;100.00;98094.38;4955808;29;20031;-84
2023/12/13 06:50:17;;;;;;;36.53;23.10;;;;;;;4.40;100.00;98067.63;4955438;29;20031;-84
2023/12/13 06:52:43;;;;;;;37.97;22.48;;;;;;;4.55;100.00;98099.59;4955126;28;20593;-85
2023/12/13 06:55:10;;;;;;;43.88;23.02;;;;;;;4.55;100.00;98095.28;4953295;29;20027;-85
2023/12/13 06:57:35;;;;;;;42.88;23.02;;;;;;;4.59;100.00;98114.84;4937681;29;20031;-84
2023/12/13 07:00:03;;;;;;;40.30;21.25;;;;;;;4.42;100.00;98063.22;4954451;29;20035;-83
2023/12/13 07:02:28;;;;;;;41.28;23.33;;;;;;;4.65;100.00;98090.53;4954077;29;20384;-85
2023/12/13 07:04:54;;;;;;;39.00;21.90;;;;;;;4.45;100.00;98053.63;4954715;29;20030;-84
2023/12/13 07:07:19;;;;;;;39.63;23.05;;;;;;;4.57;100.00;98084.88;4953928;29;20491;-85
2023/12/13 07:09:45;;;;;;;48.88;23.75;;;;;;;4.61;100.00;98089.84;4954774;29;20033;-84
2023/12/13 07:12:10;;;;;;;37.78;22.95;;;;;;;4.67;100.00;98099.84;4954908;29;20035;-84
2023/12/13 07:14:36;;;;;;;42.97;23.52;;;;;;;4.67;100.00;98093.84;4954223;29;20032;-84
2023/12/13 07:17:01;;;;;;;40.85;23.63;;;;;;;4.65;100.00;98083.63;4954198;29;20388;-85
2023/12/13 07:19:27;;;;;;;45.63;23.63;;;;;;;4.47;100.00;98049.25;4953718;29;20472;-85
2023/12/13 07:21:52;;;;;;;43.72;23.33;;;;;;;4.58;100.00;98071.09;4936545;29;20031;-84
2023/12/13 07:24:17;;;;;;;35.50;21.50;;;;;;;4.35;100.00;98044.66;4953034;29;20091;-84
2023/12/13 07:26:43;;;;;;;36.55;21.83;;;;;;;4.57;100.00;98085.72;4952805;29;20057;-85
2023/12/13 07:29:08;;;;;;;42.80;22.30;;;;;;;4.24;100.00;98032.25;4954064;29;20067;-85
2023/12/13 07:31:39;;;;;;;35.70;20.23;;;;;;;4.46;100.00;98060.44;4952681;28;20062;-85
2023/12/13 07:34:05;;;;;;;38.28;20.73;;;;;;;4.60;100.00;98095.91;4955573;29;20023;-84
2023/12/13 07:36:30;;;;;;;33.85;20.55;;;;;;;4.55;100.00;98073.81;4953251;29;20039;-85
2023/12/13 07:38:56;;;;;;;35.78;22.50;;;;;;;4.35;100.00;98049.81;4938720;29;20027;-84
2023/12/13 07:41:21;;;;;;;45.65;23.48;;;;;;;4.57;100.00;98082.31;4952778;29;20125;-85
2023/12/13 07:43:47;;;;;;;41.10;21.38;;;;;;;4.32;100.00;98023.34;4936913;29;20029;-84
2023/12/13 07:46:13;;;;;;;46.45;23.17;;;;;;;4.56;100.00;98055.69;4937958;29;20036;-85
2023/12/13 07:48:39;;;;;;;38.75;21.08;;;;;;;4.29;100.00;98015.75;4936733;29;20032;-84
2023/12/13 07:51:05;;;;;;;35.95;20.67;;;;;;;4.32;100.00;98020.78;4936694;29;20027;-85
2023/12/13 07:53:30;;;;;;;38.88;21.25;;;;;;;4.36;100.00;98037.75;4953666;28;20027;-85
2023/12/13 07:55:55;;;;;;;39.28;21.95;;;;;;;4.44;100.00;98033.91;4953195;29;20027;-85
2023/12/13 07:58:21;;;;;;;42.72;22.65;;;;;;;4.37;100.00;98027.38;4953748;29;20035;-84
2023/12/13 08:00:46;;;;;;;39.15;23.25;;;;;;;4.75;100.00;98082.25;4953717;29;20468;-85
2023/12/13 08:03:11;;;;;;;45.67;22.98;;;;;;;4.65;100.00;98064.75;4954012;29;20119;-85
2023/12/13 08:05:37;;;;;;;42.55;23.20;;;;;;;4.65;100.00;98057.00;4953312;29;20154;-85
2023/12/13 08:08:02;;;;;;;41.78;22.50;;;;;;;4.62;100.00;98062.28;4954470;29;20137;-84
2023/12/13 08:10:28;;;;;;;39.67;22.08;;;;;;;4.49;100.00;98034.50;4937158;29;20122;-84
2023/12/13 08:12:53;;;;;;;40.65;21.50;;;;;;;4.53;100.00;98036.97;4954131;29;20031;-84
2023/12/13 08:15:18;;;;;;;35.83;21.90;;;;;;;4.50;100.00;98033.59;4937344;29;20495;-84
2023/12/13 08:17:44;;;;;;;48.33;28.48;;;;;;;4.80;100.00;98086.34;4952467;29;20473;-85
2023/12/13 08:20:09;;;;;;;57.55;29.25;;;;;;;4.77;100.00;98071.88;4954148;29;20034;-84
2023/12/13 08:22:35;;;;;;;51.83;28.52;;;;;;;4.63;100.00;98046.75;4953792;29;20035;-85
2023/12/13 08:25:00;;;;;;;42.38;27.13;;;;;;;4.57;100.00;98041.88;4953756;29;20039;-85
2023/12/13 08:27:25;;;;;;;42.65;23.65;;;;;;;4.81;100.00;98082.91;4937257;29;20509;-85
2023/12/13 08:30:21;;;;;;;;;;;;;;;;;;;;;
2023/12/13 08:32:49;;;;;;;39.28;21.30;;;;;;;4.61;100.00;98037.44;4970669;28;20070;-84
2023/12/13 08:35:14;;;;;;;37.72;21.33;;;;;;;4.90;100.00;98077.28;4940866;29;20038;-84
2023/12/13 08:37:39;;;;;;;42.05;21.63;;;;;;;4.63;100.00;98017.53;4958907;29;20043;-84
2023/12/13 08:40:05;;;;;;;35.95;21.13;;;;;;;4.84;100.00;98062.09;4958511;29;20058;-84
2023/12/13 08:42:31;;;;;;;37.15;22.15;;;;;;;4.83;100.00;98050.94;4958194;29;20032;-84
2023/12/13 08:44:56;;;;;;;36.88;22.52;;;;;;;4.97;100.00;98073.47;4956846;29;20122;-84
2023/12/13 08:47:22;;;;;;;37.55;20.05;;;;;;;4.50;100.00;97996.69;4960001;29;20294;-84
2023/12/13 08:49:48;;;;;;;37.60;19.92;;;;;;;4.86;100.00;98044.81;4958055;29;20027;-84
2023/12/13 08:52:16;;;;;;;40.05;22.50;;;;;;;5.01;100.00;98067.25;4960110;29;20028;-85
2023/12/13 08:54:41;;;;;;;33.97;19.70;;;;;;;5.11;100.00;98077.97;4961377;28;20027;-84
2023/12/13 08:57:06;;;;;;;38.30;21.70;;;;;;;5.18;100.00;98076.75;4961109;29;20070;-84
2023/12/13 08:59:31;;;;;;;42.10;22.20;;;;;;;4.97;100.00;98042.50;4972313;29;20021;-84
2023/12/13 09:01:57;;;;;;;40.50;21.55;;;;;;;5.13;100.00;98074.38;4980802;28;20023;-84
2023/12/13 09:04:22;;;;;;;38.70;20.83;;;;;;;5.14;100.00;98073.50;4980034;28;20015;-84
2023/12/13 09:06:47;;;;;;;38.58;20.90;;;;;;;5.11;100.00;98065.91;4975388;29;20435;-84
2023/12/13 09:09:14;;;;;;;39.13;19.77;;;;;;;5.23;100.00;98085.13;4956530;29;20047;-85
2023/12/13 09:11:39;;;;;;;37.95;19.75;;;;;;;5.25;100.00;98076.38;4956826;29;20066;-84
2023/12/13 09:14:05;;;;;;;35.88;20.23;;;;;;;5.02;100.00;98043.16;4955786;29;20054;-84
2023/12/13 09:16:30;;;;;;;33.45;19.42;;;;;;;5.31;100.00;98080.41;4955604;29;20054;-85
2023/12/13 09:18:55;;;;;;;38.70;19.13;;;;;;;5.35;100.00;98073.31;4955659;29;20079;-85
2023/12/13 09:21:22;;;;;;;40.88;20.33;;;;;;;5.43;100.00;98078.94;4957179;29;20037;-85
2023/12/13 09:23:47;;;;;;;32.42;18.90;;;;;;;5.47;100.00;98085.59;4955189;29;20515;-84
2023/12/13 09:26:13;;;;;;;35.33;18.55;;;;;;;5.38;100.00;98066.25;4939674;29;20106;-85
2023/12/13 09:28:40;;;;;;;34.97;17.83;;;;;;;5.38;100.00;98052.50;4938469;29;20083;-85
2023/12/13 09:31:07;;;;;;;33.83;19.52;;;;;;;5.60;100.00;98094.38;4938468;29;20059;-84
2023/12/13 09:33:32;;;;;;;37.53;18.23;;;;;;;5.44;100.00;98073.69;4955670;29;20559;-85
2023/12/13 09:35:58;;;;;;;31.40;17.65;;;;;;;5.19;100.00;98035.38;4955785;29;20027;-85
2023/12/13 09:38:23;;;;;;;34.22;19.23;;;;;;;5.10;100.00;98014.34;4937922;29;20401;-85
2023/12/13 09:40:48;;;;;;;35.35;18.02;;;;;;;5.35;100.00;98066.44;4894844;29;20080;-84
2023/12/13 09:43:14;;;;;;;32.28;17.77;;;;;;;5.28;100.00;98053.91;4886885;29;20042;-85
2023/12/13 09:45:40;;;;;;;35.30;18.08;;;;;;;5.44;100.00;98078.03;4897252;29;20067;-84
2023/12/13 09:48:07;;;;;;;36.65;18.98;;;;;;;5.43;100.00;98076.34;4886095;29;20080;-84
2023/12/13 09:50:36;;;;;;;31.65;16.98;;;;;;;5.23;100.00;98036.06;4902481;29;20102;-84
2023/12/13 09:53:04;;;;;;;35.15;17.67;;;;;;;5.50;100.00;98075.13;4902944;29;20033;-84
2023/12/13 09:55:29;;;;;;;37.30;22.10;;;;;;;5.41;100.00;98060.09;4886784;29;20565;-85
2023/12/13 09:57:55;;;;;;;34.38;20.40;;;;;;;5.44;100.00;98068.53;4902606;29;20037;-84
2023/12/13 10:00:20;;;;;;;50.15;26.42;;;;;;;5.43;100.00;98066.00;4886920;29;20060;-84
2023/12/13 10:02:46;;;;;;;54.17;31.42;;;;;;;5.48;100.00;98064.06;4901969;29;20037;-84
2023/12/13 10:05:17;;;;;;;37.05;21.60;;;;;;;5.51;100.00;98056.13;4902475;29;20106;-84
2023/12/13 10:07:42;;;;;;;34.70;19.00;;;;;;;5.50;100.00;98063.03;4881551;29;20149;-84
2023/12/13 10:10:08;;;;;;;36.00;20.35;;;;;;;5.22;100.00;98011.16;4879228;29;20115;-84
2023/12/13 10:12:35;;;;;;;38.95;26.38;;;;;;;5.46;100.00;98053.78;4906321;29;20096;-84
2023/12/13 10:15:11;;;;;;;34.13;20.77;;;;;;;5.38;100.00;98024.94;4914287;29;20720;-84
2023/12/13 10:17:37;;;;;;;32.78;19.25;;;;;;;5.58;100.00;98054.06;4913330;29;20131;-84
2023/12/13 10:20:03;;;;;;;36.95;21.70;;;;;;;5.43;100.00;98030.69;4914296;29;20450;-84
2023/12/13 10:22:29;;;;;;;41.40;24.85;;;;;;;5.59;100.00;98048.81;4914626;29;20139;-84
2023/12/13 10:24:56;;;;;;;44.03;25.10;;;;;;;5.55;100.00;98039.56;4913586;29;20517;-84
2023/12/13 10:27:21;;;;;;;42.08;22.58;;;;;;;5.61;100.00;98057.34;4913413;29;20072;-84
2023/12/13 10:29:47;;;;;;;33.75;22.20;;;;;;;5.53;100.00;98038.81;4913438;29;20625;-84
2023/12/13 10:32:12;;;;;;;39.60;23.00;;;;;;;5.05;100.00;97946.66;4897361;29;20398;-84
2023/12/13 10:34:37;;;;;;;41.33;24.17;;;;;;;5.59;100.00;98019.59;4914417;29;20036;-84
2023/12/13 10:37:06;;;;;;;40.65;25.85;;;;;;;5.56;100.00;98006.81;4914709;29;20048;-84
2023/12/13 10:39:32;;;;;;;40.20;22.42;;;;;;;5.55;100.00;98005.16;4914620;29;20386;-85
2023/12/13 10:42:00;;;;;;;44.33;21.73;;;;;;;5.74;100.00;98042.88;4913657;29;20102;-85
2023/12/13 10:44:31;;;;;;;38.13;21.17;;;;;;;5.60;100.00;98014.31;4932436;29;20382;-85
2023/12/13 10:46:59;;;;;;;35.08;21.35;;;;;;;5.59;100.00;98015.25;4935502;29;20032;-85
2023/12/13 10:49:24;;;;;;;42.13;21.52;;;;;;;5.44;100.00;97977.34;4935195;29;20031;-85
2023/12/13 10:51:51;;;;;;;41.38;24.15;;;;;;;5.57;100.00;97996.44;4935433;29;20036;-85
2023/12/13 10:54:17;;;;;;;37.67;20.80;;;;;;;5.51;100.00;97986.41;4935412;29;20031;-84
2023/12/13 10:56:43;;;;;;;31.83;20.00;;;;;;;5.71;100.00;98031.84;4949210;28;20031;-84
2023/12/13 10:59:09;;;;;;;41.33;21.88;;;;;;;5.48;100.00;97987.44;4935003;29;20086;-84
2023/12/13 11:01:38;;;;;;;44.90;29.35;;;;;;;5.65;100.00;98014.94;4934201;29;20042;-85
2023/12/13 11:04:09;;;;;;;56.85;32.97;;;;;;;5.68;100.00;98007.00;4935316;29;20428;-85
2023/12/13 11:06:36;;;;;;;51.85;30.38;;;;;;;5.52;100.00;97985.50;4935569;29;20102;-84
2023/12/13 11:09:17;;;;;;;45.35;25.67;;;;;;;5.66;100.00;98014.03;4935332;29;20055;-84
2023/12/13 11:11:43;;;;;;;45.03;24.48;;;;;;;5.46;100.00;97981.50;4933688;29;20187;-84
2023/12/13 11:14:10;;;;;;;46.95;28.52;;;;;;;5.49;100.00;97990.84;4935316;29;20028;-85